Time,TemperatureF,DewpointF,PressureIn,WindDirection,WindDirectionDegrees,WindSpeedMPH,WindSpeedGustMPH,Humidity,HourlyPrecipIn,Conditions,Clouds,dailyrainin,SoftwareType,DateUTC
2013-04-12 00:01:00,60.0,58.6,29.72,East,94,2.0,2.0,95,0.09,,,0.00,Wunderground v.1.15,2013-04-12 04:01:00,
2013-04-12 00:04:00,60.0,58.6,29.71,East,94,2.0,2.0,95,0.13,,,0.01,Wunderground v.1.15,2013-04-12 04:04:00,
2013-04-12 00:06:00,60.0,58.6,29.71,ESE,109,2.0,2.0,95,0.13,,,0.01,Wunderground v.1.15,2013-04-12 04:06:00,
2013-04-12 00:12:00,60.0,58.6,29.72,ESE,110,3.0,3.0,95,0.18,,,0.03,Wunderground v.1.15,2013-04-12 04:12:00,
2013-04-12 00:18:00,60.0,58.6,29.71,East,84,3.0,3.0,95,0.21,,,0.05,Wunderground v.1.15,2013-04-12 04:18:00,
2013-04-12 00:24:00,60.0,58.6,29.71,East,89,1.0,2.0,95,0.21,,,0.07,Wunderground v.1.15,2013-04-12 04:24:00,
2013-04-12 00:30:00,60.0,58.6,29.70,East,83,1.0,1.0,95,0.19,,,0.09,Wunderground v.1.15,2013-04-12 04:30:00,
2013-04-12 00:36:00,60.0,58.6,29.69,NE,51,0.0,1.0,95,0.12,,,0.10,Wunderground v.1.15,2013-04-12 04:36:00,
2013-04-12 00:42:00,60.0,58.6,29.69,NE,42,1.0,2.0,95,0.12,,,0.11,Wunderground v.1.15,2013-04-12 04:42:00,
2013-04-12 00:50:00,59.9,58.5,29.69,NE,49,2.0,2.0,95,0.11,,,0.13,Wunderground v.1.15,2013-04-12 04:50:00,
2013-04-12 00:56:00,59.9,58.5,29.69,NE,44,1.0,2.0,95,0.13,,,0.14,Wunderground v.1.15,2013-04-12 04:56:00,
2013-04-12 01:04:00,59.9,58.8,29.68,NW,324,0.0,4.0,96,0.15,,,0.16,Wunderground v.1.15,2013-04-12 05:04:00,
2013-04-12 01:10:00,59.9,58.8,29.65,North,352,1.0,4.0,96,0.11,,,0.18,Wunderground v.1.15,2013-04-12 05:10:00,
2013-04-12 01:18:00,59.9,58.8,29.64,NNW,335,4.0,8.0,96,0.11,,,0.19,Wunderground v.1.15,2013-04-12 05:18:00,
2013-04-12 01:24:00,60.0,58.9,29.62,NNW,343,6.0,7.0,96,0.07,,,0.20,Wunderground v.1.15,2013-04-12 05:24:00,
2013-04-12 01:30:00,60.2,59.1,29.62,North,1,5.0,7.0,96,0.07,,,0.20,Wunderground v.1.15,2013-04-12 05:30:00,
2013-04-12 01:36:00,60.4,59.3,29.61,NNE,15,6.0,8.0,96,0.05,,,0.20,Wunderground v.1.15,2013-04-12 05:36:00,
2013-04-12 01:42:00,60.6,59.2,29.61,North,4,4.0,5.0,95,0.05,,,0.21,Wunderground v.1.15,2013-04-12 05:42:00,
2013-04-12 01:48:00,60.7,59.3,29.61,NW,322,1.0,5.0,95,0.05,,,0.21,Wunderground v.1.15,2013-04-12 05:48:00,
2013-04-12 01:54:00,60.7,59.3,29.60,North,1,1.0,4.0,95,0.00,,,0.21,Wunderground v.1.15,2013-04-12 05:54:00,
2013-04-12 02:00:00,60.8,59.1,29.60,SE,130,1.0,1.0,94,0.00,,,0.21,Wunderground v.1.15,2013-04-12 06:00:00,
2013-04-12 02:06:00,60.9,59.2,29.59,ENE,63,0.0,4.0,94,0.00,,,0.21,Wunderground v.1.15,2013-04-12 06:06:00,
2013-04-12 02:12:00,61.1,59.1,29.60,SE,143,1.0,4.0,93,0.00,,,0.21,Wunderground v.1.15,2013-04-12 06:12:00,
2013-04-12 02:18:00,61.2,59.2,29.60,South,190,1.0,4.0,93,0.00,,,0.21,Wunderground v.1.15,2013-04-12 06:18:00,
2013-04-12 02:24:00,61.4,59.1,29.59,South,177,1.0,4.0,92,0.00,,,0.21,Wunderground v.1.15,2013-04-12 06:24:00,
2013-04-12 02:30:00,61.4,59.1,29.60,South,183,1.0,4.0,92,0.00,,,0.21,Wunderground v.1.15,2013-04-12 06:30:00,
2013-04-12 02:36:00,61.4,59.1,29.59,SSE,149,2.0,4.0,92,0.00,,,0.21,Wunderground v.1.15,2013-04-12 06:36:00,
2013-04-12 02:42:00,61.3,59.0,29.59,South,177,1.0,4.0,92,0.00,,,0.21,Wunderground v.1.15,2013-04-12 06:42:00,
2013-04-12 02:48:00,61.2,59.2,29.59,SSW,195,1.0,4.0,93,0.00,,,0.21,Wunderground v.1.15,2013-04-12 06:48:00,
2013-04-12 02:54:00,61.3,59.0,29.59,East,86,1.0,4.0,92,0.00,,,0.21,Wunderground v.1.15,2013-04-12 06:54:00,
2013-04-12 03:00:00,61.0,59.0,29.59,South,187,2.0,4.0,93,0.00,,,0.21,Wunderground v.1.15,2013-04-12 07:00:00,
2013-04-12 03:06:00,61.0,59.0,29.59,ENE,71,2.0,4.0,93,0.00,,,0.21,Wunderground v.1.15,2013-04-12 07:06:00,
2013-04-12 03:12:00,60.9,58.9,29.59,NE,46,1.0,4.0,93,0.00,,,0.21,Wunderground v.1.15,2013-04-12 07:12:00,
2013-04-12 03:18:00,60.9,58.9,29.59,South,177,0.0,4.0,93,0.00,,,0.21,Wunderground v.1.15,2013-04-12 07:18:00,
2013-04-12 03:24:00,60.7,59.0,29.59,South,177,0.0,4.0,94,0.00,,,0.21,Wunderground v.1.15,2013-04-12 07:24:00,
2013-04-12 03:30:00,60.7,59.0,29.59,South,176,0.0,4.0,94,0.00,,,0.21,Wunderground v.1.15,2013-04-12 07:30:00,
2013-04-12 03:36:00,60.6,58.9,29.59,WNW,300,0.0,4.0,94,0.00,,,0.21,Wunderground v.1.15,2013-04-12 07:36:00,
2013-04-12 03:42:00,60.6,59.2,29.59,WSW,253,1.0,4.0,95,0.00,,,0.21,Wunderground v.1.15,2013-04-12 07:42:00,
2013-04-12 03:48:00,60.5,59.1,29.59,SW,235,1.0,4.0,95,0.00,,,0.21,Wunderground v.1.15,2013-04-12 07:48:00,
2013-04-12 03:54:00,60.5,59.1,29.59,WSW,256,2.0,4.0,95,0.00,,,0.21,Wunderground v.1.15,2013-04-12 07:54:00,
2013-04-12 04:00:00,60.6,59.2,29.58,NW,310,1.0,4.0,95,0.00,,,0.21,Wunderground v.1.15,2013-04-12 08:00:00,
2013-04-12 04:08:00,60.6,59.2,29.58,NW,317,1.0,4.0,95,0.00,,,0.21,Wunderground v.1.15,2013-04-12 08:08:00,
2013-04-12 04:14:00,60.7,59.3,29.59,SW,228,3.0,4.0,95,0.88,,,0.24,Wunderground v.1.15,2013-04-12 08:14:00,
2013-04-12 04:20:00,60.7,59.3,29.60,WSW,241,4.0,4.0,95,0.83,,,0.29,Wunderground v.1.15,2013-04-12 08:20:00,
2013-04-12 04:26:00,60.8,59.1,29.61,SSW,211,5.0,7.0,94,1.94,,,0.36,Wunderground v.1.15,2013-04-12 08:26:00,
2013-04-12 04:32:00,60.8,59.1,29.60,SW,225,6.0,6.0,94,0.35,,,0.43,Wunderground v.1.15,2013-04-12 08:32:00,
2013-04-12 04:38:00,60.9,59.2,29.61,South,187,6.0,7.0,94,0.08,,,0.43,Wunderground v.1.15,2013-04-12 08:38:00,
2013-04-12 04:44:00,61.0,59.0,29.62,SSW,192,6.0,9.0,93,0.05,,,0.44,Wunderground v.1.15,2013-04-12 08:44:00,
2013-04-12 04:50:00,61.0,59.0,29.62,South,185,6.0,6.0,93,0.05,,,0.44,Wunderground v.1.15,2013-04-12 08:50:00,
2013-04-12 04:56:00,60.8,58.8,29.62,SW,225,8.0,16.0,93,0.08,,,0.45,Wunderground v.1.15,2013-04-12 08:56:00,
2013-04-12 05:02:00,60.6,57.3,29.62,SSW,200,11.0,13.0,89,0.05,,,0.45,Wunderground v.1.15,2013-04-12 09:02:00,
2013-04-12 05:08:00,60.3,56.1,29.62,SSW,193,12.0,15.0,86,0.00,,,0.45,Wunderground v.1.15,2013-04-12 09:08:00,
2013-04-12 05:14:00,60.2,55.3,29.62,SW,222,12.0,15.0,84,0.00,,,0.45,Wunderground v.1.15,2013-04-12 09:14:00,
2013-04-12 05:20:00,59.9,55.1,29.63,SW,223,12.0,13.0,84,0.00,,,0.45,Wunderground v.1.15,2013-04-12 09:20:00,
2013-04-12 05:26:00,59.6,54.8,29.63,SSW,196,10.0,13.0,84,0.00,,,0.45,Wunderground v.1.15,2013-04-12 09:26:00,
2013-04-12 05:32:00,59.3,54.1,29.63,SW,222,10.0,16.0,83,0.00,,,0.45,Wunderground v.1.15,2013-04-12 09:32:00,
2013-04-12 05:38:00,58.9,54.1,29.65,SW,231,10.0,16.0,84,0.00,,,0.45,Wunderground v.1.15,2013-04-12 09:38:00,
2013-04-12 05:44:00,58.7,53.9,29.66,SW,219,10.0,15.0,84,0.00,,,0.45,Wunderground v.1.15,2013-04-12 09:44:00,
2013-04-12 05:50:00,58.3,53.5,29.66,SW,215,10.0,12.0,84,0.00,,,0.45,Wunderground v.1.15,2013-04-12 09:50:00,
2013-04-12 05:56:00,57.8,53.3,29.67,SW,214,10.0,14.0,85,0.00,,,0.45,Wunderground v.1.15,2013-04-12 09:56:00,
2013-04-12 06:02:00,57.4,52.9,29.67,SSW,198,9.0,9.0,85,0.00,,,0.45,Wunderground v.1.15,2013-04-12 10:02:00,
2013-04-12 06:08:00,57.2,52.4,29.67,SSW,207,9.0,10.0,84,0.00,,,0.45,Wunderground v.1.15,2013-04-12 10:08:00,
2013-04-12 06:14:00,57.0,52.2,29.68,SSW,203,9.0,10.0,84,0.00,,,0.45,Wunderground v.1.15,2013-04-12 10:14:00,
2013-04-12 06:20:00,56.8,51.7,29.68,SSW,202,8.0,10.0,83,0.00,,,0.45,Wunderground v.1.15,2013-04-12 10:20:00,
2013-04-12 06:28:00,56.5,51.4,29.69,South,190,8.0,10.0,83,0.00,,,0.45,Wunderground v.1.15,2013-04-12 10:28:00,
2013-04-12 06:34:00,56.4,51.3,29.70,SSW,204,8.0,9.0,83,0.00,,,0.45,Wunderground v.1.15,2013-04-12 10:34:00,
2013-04-12 06:40:00,56.5,51.1,29.70,SSW,193,8.0,8.0,82,0.00,,,0.45,Wunderground v.1.15,2013-04-12 10:40:00,
2013-04-12 06:46:00,56.4,51.0,29.70,SSW,204,7.0,11.0,82,0.00,,,0.45,Wunderground v.1.15,2013-04-12 10:46:00,
2013-04-12 06:52:00,56.4,50.6,29.71,SW,219,7.0,15.0,81,0.00,,,0.45,Wunderground v.1.15,2013-04-12 10:52:00,
2013-04-12 06:58:00,56.3,50.2,29.71,South,183,9.0,15.0,80,0.00,,,0.45,Wunderground v.1.15,2013-04-12 10:58:00,
2013-04-12 07:04:00,56.2,50.1,29.72,South,190,9.0,15.0,80,0.00,,,0.45,Wunderground v.1.15,2013-04-12 11:04:00,
2013-04-12 07:10:00,56.1,50.0,29.73,SSW,203,10.0,10.0,80,0.00,,,0.45,Wunderground v.1.15,2013-04-12 11:10:00,
2013-04-12 07:18:00,55.9,49.8,29.73,SSW,200,8.0,11.0,80,0.00,,,0.45,Wunderground v.1.15,2013-04-12 11:18:00,
2013-04-12 07:24:00,55.7,49.6,29.74,SSW,213,9.0,10.0,80,0.00,,,0.45,Wunderground v.1.15,2013-04-12 11:24:00,
2013-04-12 07:30:00,55.6,49.5,29.73,SSW,198,7.0,7.0,80,0.00,,,0.45,Wunderground v.1.15,2013-04-12 11:30:00,
2013-04-12 07:36:00,55.5,49.4,29.74,SSW,201,8.0,12.0,80,0.00,,,0.45,Wunderground v.1.15,2013-04-12 11:36:00,
2013-04-12 07:42:00,55.4,49.7,29.75,South,184,8.0,8.0,81,0.00,,,0.45,Wunderground v.1.15,2013-04-12 11:42:00,
2013-04-12 07:48:00,55.4,49.7,29.75,SSW,195,8.0,8.0,81,0.00,,,0.45,Wunderground v.1.15,2013-04-12 11:48:00,
2013-04-12 07:54:00,55.4,49.7,29.75,South,190,8.0,8.0,81,0.00,,,0.45,Wunderground v.1.15,2013-04-12 11:54:00,
2013-04-12 08:00:00,55.3,49.6,29.76,South,180,6.0,6.0,81,0.00,,,0.45,Wunderground v.1.15,2013-04-12 12:00:00,